createdAt,value
2023-04-01T00:01:28.646Z,2.33
2023-04-01T00:03:57.062Z,2.10
2023-04-01T00:06:24.089Z,2.30
2023-04-01T00:08:51.305Z,2.47
2023-04-01T00:11:20.485Z,2.70
2023-04-01T00:13:48.025Z,2.45
2023-04-01T00:16:21.869Z,2.35
2023-04-01T00:18:50.543Z,2.88
2023-04-01T00:21:17.591Z,2.00
2023-04-01T00:23:44.879Z,2.53
2023-04-01T00:26:13.261Z,2.33
2023-04-01T00:28:41.025Z,2.38
2023-04-01T00:31:08.790Z,2.67
2023-04-01T00:33:36.585Z,2.53
2023-04-01T00:36:22.714Z,2.50
2023-04-01T00:38:50.477Z,2.65
2023-04-01T00:41:18.017Z,2.83
2023-04-01T00:43:46.504Z,3.10
2023-04-01T00:46:13.581Z,2.33
2023-04-01T00:48:46.896Z,2.55
2023-04-01T00:51:17.253Z,1.95
2023-04-01T00:53:49.370Z,1.92
2023-04-01T00:56:28.501Z,2.20
2023-04-01T00:59:01.332Z,2.10
2023-04-01T01:01:28.472Z,2.17
2023-04-01T01:03:55.525Z,2.20
2023-04-01T01:06:40.739Z,1.85
2023-04-01T01:09:14.063Z,1.65
2023-04-01T01:11:52.965Z,1.23
2023-04-01T01:14:37.522Z,0.90
2023-04-01T01:17:40.528Z,1.48
2023-04-01T01:20:44.552Z,1.25
2023-04-01T01:23:48.306Z,1.35
2023-04-01T01:26:45.519Z,1.35
2023-04-01T01:29:18.600Z,1.17
2023-04-01T01:31:58.217Z,0.52
2023-04-01T01:34:30.783Z,0.63
2023-04-01T01:37:04.399Z,0.40
2023-04-01T01:39:32.531Z,0.10
2023-04-01T01:42:02.252Z,0.20
2023-04-01T01:44:29.763Z,0.20
2023-04-01T01:46:57.347Z,0.20
2023-04-01T01:49:24.226Z,0.13
2023-04-01T01:51:51.151Z,0.17
2023-04-01T01:54:18.621Z,0.10
2023-04-01T01:56:47.930Z,0.10
2023-04-01T01:59:15.670Z,0.10
2023-04-01T02:01:50.003Z,0.10
2023-04-01T02:04:17.756Z,0.40
2023-04-01T02:06:54.746Z,0.30
2023-04-01T02:09:22.098Z,0.15
2023-04-01T02:11:51.592Z,0.15
2023-04-01T02:14:22.438Z,0.20
2023-04-01T02:17:11.032Z,0.20
2023-04-01T02:19:48.182Z,0.10
2023-04-01T02:22:17.744Z,0.10
2023-04-01T02:24:44.676Z,0.10
2023-04-01T02:27:11.992Z,0.20
2023-04-01T02:29:39.100Z,0.10
2023-04-01T02:32:08.811Z,0.10
2023-04-01T02:34:35.992Z,0.00
2023-04-01T02:37:03.001Z,0.10
2023-04-01T02:39:29.938Z,0.10
2023-04-01T02:41:56.825Z,0.10
2023-04-01T02:44:23.797Z,0.10
2023-04-01T02:46:50.834Z,0.10
2023-04-01T02:49:17.873Z,0.10
2023-04-01T02:51:45.004Z,0.32
2023-04-01T02:54:12.185Z,0.10
2023-04-01T02:56:39.276Z,0.17
2023-04-01T02:59:06.200Z,0.10
2023-04-01T03:01:33.393Z,0.00
2023-04-01T03:04:00.777Z,0.10
2023-04-01T03:06:27.721Z,0.00
2023-04-01T03:08:54.877Z,0.00
2023-04-01T03:11:22.252Z,0.10
2023-04-01T03:13:49.811Z,0.10
2023-04-01T03:16:17.201Z,0.10
2023-04-01T03:18:45.112Z,0.03
2023-04-01T03:21:19.780Z,0.57
2023-04-01T03:23:46.803Z,0.10
2023-04-01T03:26:14.344Z,0.08
2023-04-01T03:28:41.655Z,0.05
2023-04-01T03:31:08.708Z,0.00
2023-04-01T03:33:42.245Z,0.00
2023-04-01T03:36:09.570Z,0.00
2023-04-01T03:38:36.605Z,0.10
2023-04-01T03:41:03.595Z,0.45
2023-04-01T03:43:31.998Z,0.10
2023-04-01T03:45:59.345Z,0.00
2023-04-01T03:48:26.901Z,0.00
2023-04-01T03:50:54.171Z,0.00
2023-04-01T03:53:21.336Z,0.08
2023-04-01T03:55:49.515Z,0.10
2023-04-01T03:58:17.001Z,0.10
2023-04-01T04:00:44.216Z,0.00
2023-04-01T04:03:12.245Z,0.03
2023-04-01T04:05:39.223Z,0.10
2023-04-01T04:08:06.431Z,0.00
2023-04-01T04:10:36.070Z,0.08
2023-04-01T04:13:03.027Z,0.10
2023-04-01T04:15:31.936Z,0.00
2023-04-01T04:17:59.137Z,0.00
2023-04-01T04:20:26.165Z,0.10
2023-04-01T04:22:53.127Z,0.00
2023-04-01T04:25:20.147Z,0.00
2023-04-01T04:27:47.133Z,0.00
2023-04-01T04:30:15.943Z,0.00
2023-04-01T04:32:43.299Z,0.00
2023-04-01T04:35:12.452Z,0.00
2023-04-01T04:37:40.606Z,0.00
2023-04-01T04:40:08.690Z,0.43
2023-04-01T04:42:35.758Z,0.00
2023-04-01T04:45:09.405Z,0.32
2023-04-01T04:47:39.332Z,0.35
2023-04-01T04:50:07.407Z,0.00
2023-04-01T04:52:34.552Z,0.00
2023-04-01T04:55:01.646Z,0.00
2023-04-01T04:57:29.228Z,0.05
2023-04-01T04:59:56.604Z,0.00
2023-04-01T05:02:53.168Z,0.00
2023-04-01T05:05:20.417Z,0.00
2023-04-01T05:07:47.453Z,0.30
2023-04-01T05:10:14.814Z,0.10
2023-04-01T05:12:41.819Z,0.00
2023-04-01T05:15:11.234Z,0.10
2023-04-01T05:17:39.107Z,0.00
2023-04-01T05:20:06.973Z,0.10
2023-04-01T05:22:33.934Z,0.00
2023-04-01T05:25:01.007Z,0.00
2023-04-01T05:27:29.244Z,0.10
2023-04-01T05:29:56.957Z,0.08
2023-04-01T05:32:46.565Z,0.00
2023-04-01T05:35:13.588Z,0.13
2023-04-01T05:37:40.706Z,0.10
2023-04-01T05:40:08.644Z,0.00
2023-04-01T05:42:36.950Z,0.00
2023-04-01T05:45:05.722Z,0.05
2023-04-01T05:47:51.201Z,0.10
2023-04-01T05:50:19.529Z,0.05
2023-04-01T05:52:46.458Z,0.10
2023-04-01T05:55:13.556Z,0.35
2023-04-01T05:57:40.776Z,0.13
2023-04-01T06:00:08.340Z,0.00
2023-04-01T06:02:40.116Z,0.10
2023-04-01T06:05:26.137Z,0.10
2023-04-01T06:08:01.691Z,0.10
2023-04-01T06:10:38.517Z,0.10
2023-04-01T06:13:24.519Z,0.20
2023-04-01T06:16:24.102Z,0.10
2023-04-01T06:19:22.081Z,0.00
2023-04-01T06:22:15.325Z,0.10
2023-04-01T06:25:06.760Z,0.10
2023-04-01T06:27:48.849Z,0.08
2023-04-01T06:30:50.461Z,0.10
2023-04-01T06:33:52.845Z,0.10
2023-04-01T06:36:45.925Z,0.30
2023-04-01T06:39:31.498Z,0.10
2023-04-01T06:42:15.889Z,0.10
2023-04-01T06:44:56.413Z,0.10
2023-04-01T06:48:12.956Z,0.10
2023-04-01T06:51:21.471Z,0.20
2023-04-01T06:54:23.044Z,0.20
2023-04-01T06:57:40.598Z,0.13
2023-04-01T07:00:33.302Z,0.10
2023-04-01T07:03:01.294Z,0.20
2023-04-01T07:05:58.959Z,0.10
2023-04-01T07:08:27.939Z,0.22
2023-04-01T07:10:55.902Z,0.10
2023-04-01T07:13:56.484Z,0.20
2023-04-01T07:16:42.392Z,0.20
2023-04-01T07:19:37.223Z,0.20
2023-04-01T07:22:20.941Z,0.20
2023-04-01T07:25:13.157Z,0.20
2023-04-01T07:27:40.338Z,0.20
2023-04-01T07:30:21.273Z,0.60
2023-04-01T07:33:29.656Z,0.25
2023-04-01T07:36:29.029Z,0.10
2023-04-01T07:39:19.058Z,0.40
2023-04-01T07:42:22.133Z,0.43
2023-04-01T07:45:00.999Z,0.22
2023-04-01T07:47:50.235Z,0.30
2023-04-01T07:50:51.251Z,0.38
2023-04-01T07:53:58.315Z,0.20
2023-04-01T07:56:27.998Z,0.10
2023-04-01T07:59:16.310Z,0.20
2023-04-01T08:02:14.902Z,0.20
2023-04-01T08:05:00.484Z,0.30
2023-04-01T08:07:47.113Z,0.40
2023-04-01T08:10:54.655Z,0.43
2023-04-01T08:14:00.567Z,0.22
2023-04-01T08:17:12.269Z,0.60
2023-04-01T08:20:00.973Z,0.70
2023-04-01T08:22:45.040Z,0.63
2023-04-01T08:25:27.178Z,0.95
2023-04-01T08:28:08.109Z,1.00
2023-04-01T08:30:43.278Z,0.40
2023-04-01T08:33:26.440Z,0.35
2023-04-01T08:36:16.945Z,0.30
2023-04-01T08:39:15.440Z,0.52
2023-04-01T08:42:00.881Z,0.30
2023-04-01T08:45:07.237Z,0.50
2023-04-01T08:47:46.233Z,0.30
2023-04-01T08:50:47.771Z,0.30
2023-04-01T08:53:28.738Z,0.20
2023-04-01T08:56:13.222Z,0.20
2023-04-01T08:59:14.532Z,0.47
2023-04-01T09:01:58.080Z,0.50
2023-04-01T09:05:34.995Z,0.60
2023-04-01T09:08:14.604Z,0.28
2023-04-01T09:10:53.946Z,0.65
2023-04-01T09:14:05.144Z,0.50
2023-04-01T09:17:01.371Z,0.35
2023-04-01T09:19:53.218Z,0.40
2023-04-01T09:22:31.814Z,0.25
2023-04-01T09:25:32.190Z,0.17
2023-04-01T09:28:21.348Z,0.40
2023-04-01T09:31:07.194Z,0.20
2023-04-01T09:33:44.437Z,0.20
2023-04-01T09:36:21.052Z,0.40
2023-04-01T09:38:58.507Z,0.10
2023-04-01T09:41:33.980Z,0.17
2023-04-01T09:44:37.738Z,0.20
2023-04-01T09:47:23.875Z,0.10
2023-04-01T09:50:14.395Z,0.10
2023-04-01T09:52:59.982Z,0.43
2023-04-01T09:55:58.487Z,0.52
2023-04-01T09:58:43.988Z,0.38
2023-04-01T10:01:43.181Z,0.55
2023-04-01T10:04:25.456Z,0.15
2023-04-01T10:07:15.114Z,0.20
2023-04-01T10:13:00.014Z,0.10
2023-04-01T10:15:52.738Z,0.10
2023-04-01T10:18:57.637Z,0.00
2023-04-01T10:21:36.801Z,0.00
2023-04-01T10:24:04.240Z,0.10
2023-04-01T10:26:37.206Z,0.17
2023-04-01T10:29:40.297Z,0.10
2023-04-01T10:32:22.988Z,0.10
2023-04-01T10:35:40.827Z,0.15
2023-04-01T10:38:32.453Z,0.10
2023-04-01T10:41:23.156Z,0.10
2023-04-01T10:44:34.901Z,0.10
2023-04-01T10:47:41.475Z,0.30
2023-04-01T10:50:38.980Z,0.25
2023-04-01T10:53:34.842Z,0.10
2023-04-01T10:56:49.351Z,0.10
2023-04-01T10:59:53.722Z,0.13
2023-04-01T11:03:04.283Z,0.10
2023-04-01T11:06:13.826Z,0.20
2023-04-01T11:09:05.322Z,0.25
2023-04-01T11:11:41.504Z,0.57
2023-04-01T11:14:27.259Z,0.40
2023-04-01T11:17:03.071Z,0.40
2023-04-01T11:19:34.112Z,0.30
2023-04-01T11:22:12.186Z,0.77
2023-04-01T11:25:27.363Z,0.47
2023-04-01T11:28:20.919Z,0.50
2023-04-01T11:31:03.552Z,0.80
2023-04-01T11:33:56.997Z,0.35
2023-04-01T11:36:45.923Z,0.30
2023-04-01T11:39:58.334Z,0.80
2023-04-01T11:43:02.389Z,0.47
2023-04-01T11:46:27.347Z,0.45
2023-04-01T11:48:59.618Z,0.55
2023-04-01T11:51:32.501Z,0.80
2023-04-01T11:54:07.462Z,1.00
2023-04-01T11:56:46.369Z,0.63
2023-04-01T11:59:44.368Z,0.70
2023-04-01T12:02:31.718Z,0.47
2023-04-01T12:05:23.480Z,0.68
2023-04-01T12:07:56.236Z,0.47
2023-04-01T12:10:30.605Z,0.80
2023-04-01T12:13:02.553Z,0.40
2023-04-01T12:15:42.110Z,0.20
2023-04-01T12:18:48.416Z,0.20
2023-04-01T12:21:21.878Z,0.10
2023-04-01T12:24:07.533Z,0.35
2023-04-01T12:27:02.076Z,0.50
2023-04-01T12:30:03.586Z,0.47
2023-04-01T12:33:04.453Z,0.30
2023-04-01T12:35:56.237Z,0.10
2023-04-01T12:38:26.261Z,0.10
2023-04-01T12:41:00.021Z,0.20
2023-04-01T12:43:55.245Z,0.45
2023-04-01T12:46:44.333Z,0.10
2023-04-01T12:49:28.917Z,0.20
2023-04-01T12:52:04.459Z,0.10
2023-04-01T12:54:37.352Z,0.30
2023-04-01T12:57:29.450Z,0.38
2023-04-01T13:00:15.131Z,0.13
2023-04-01T13:02:54.287Z,0.10
2023-04-01T13:06:13.591Z,0.20
2023-04-01T13:08:49.583Z,0.08
2023-04-01T13:11:38.022Z,0.10
2023-04-01T13:14:18.442Z,0.10
2023-04-01T13:17:09.723Z,0.10
2023-04-01T13:19:58.026Z,0.10
2023-04-01T13:22:46.884Z,0.30
2023-04-01T13:25:29.020Z,0.10
2023-04-01T13:28:14.256Z,0.10
2023-04-01T13:31:00.288Z,0.10
2023-04-01T13:33:33.721Z,0.10
2023-04-01T13:36:36.256Z,0.10
2023-04-01T13:39:40.804Z,0.10
2023-04-01T13:42:14.051Z,0.10
2023-04-01T13:45:13.528Z,0.00
2023-04-01T13:48:09.917Z,0.10
2023-04-01T13:50:58.264Z,0.15
2023-04-01T13:53:56.918Z,0.05
2023-04-01T13:56:38.885Z,0.00
2023-04-01T13:59:16.398Z,0.10
2023-04-01T14:01:51.097Z,0.10
2023-04-01T14:04:23.748Z,0.00
2023-04-01T14:07:13.097Z,0.10
2023-04-01T14:10:19.903Z,0.00
2023-04-01T14:13:00.371Z,0.17
2023-04-01T14:15:48.817Z,0.10
2023-04-01T14:18:34.272Z,0.00
2023-04-01T14:21:33.173Z,0.10
2023-04-01T14:24:23.960Z,0.00
2023-04-01T14:27:09.980Z,0.10
2023-04-01T14:29:37.008Z,0.10
2023-04-01T14:32:06.558Z,0.10
2023-04-01T14:34:45.355Z,0.10
2023-04-01T14:37:51.409Z,0.10
2023-04-01T14:40:39.725Z,0.00
2023-04-01T14:43:41.689Z,0.00
2023-04-01T14:46:40.845Z,0.00
2023-04-01T14:49:31.962Z,0.10
2023-04-01T14:52:05.215Z,0.10
2023-04-01T14:54:36.744Z,0.20
2023-04-01T14:57:17.952Z,0.00
2023-04-01T15:00:14.777Z,0.30
2023-04-01T15:03:06.362Z,0.10
2023-04-01T15:06:11.259Z,0.20
2023-04-01T15:08:48.277Z,0.20
2023-04-01T15:11:50.857Z,0.20
2023-04-01T15:14:23.138Z,0.10
2023-04-01T15:16:50.203Z,0.10
2023-04-01T15:19:29.779Z,0.28
2023-04-01T15:22:18.515Z,0.10
2023-04-01T15:25:12.954Z,0.17
2023-04-01T15:28:21.748Z,0.10
2023-04-01T15:30:54.787Z,0.10
2023-04-01T15:33:52.504Z,0.10
2023-04-01T15:36:46.044Z,0.20
2023-04-01T15:39:19.667Z,0.10
2023-04-01T15:42:13.549Z,0.10
2023-04-01T15:44:53.560Z,0.10
2023-04-01T15:47:26.588Z,0.10
2023-04-01T15:50:27.885Z,0.20
2023-04-01T15:53:28.153Z,0.20
2023-04-01T15:56:17.219Z,0.55
2023-04-01T15:59:08.549Z,0.30
2023-04-01T16:01:57.295Z,0.77
2023-04-01T16:04:46.361Z,0.40
2023-04-01T16:07:26.349Z,0.30
2023-04-01T16:10:15.334Z,0.20
2023-04-01T16:13:13.925Z,0.50
2023-04-01T16:16:04.016Z,0.30
2023-04-01T16:18:49.807Z,0.43
2023-04-01T16:21:29.088Z,0.25
2023-04-01T16:24:01.136Z,0.20
2023-04-01T16:26:34.296Z,0.30
2023-04-01T16:29:16.453Z,0.40
2023-04-01T16:31:58.812Z,0.20
2023-04-01T16:34:34.845Z,0.40
2023-04-01T16:37:19.042Z,0.45
2023-04-01T16:39:54.367Z,0.22
2023-04-01T16:42:24.839Z,0.20
2023-04-01T16:45:00.898Z,0.35
2023-04-01T16:47:32.962Z,0.75
2023-04-01T16:50:25.977Z,0.43
2023-04-01T16:53:22.159Z,0.55
2023-04-01T16:56:02.516Z,0.50
2023-04-01T16:58:38.494Z,1.05
2023-04-01T17:01:08.764Z,0.20
2023-04-01T17:03:45.595Z,0.20
2023-04-01T17:06:48.245Z,0.43
2023-04-01T17:09:47.390Z,0.57
2023-04-01T17:12:31.906Z,0.15
2023-04-01T17:15:22.024Z,0.20
2023-04-01T17:17:59.846Z,0.68
2023-04-01T17:20:34.292Z,0.50
2023-04-01T17:23:13.673Z,0.50
2023-04-01T17:26:03.076Z,0.45
2023-04-01T17:28:35.888Z,0.22
2023-04-01T17:31:27.109Z,0.25
2023-04-01T17:34:17.666Z,0.20
2023-04-01T17:37:19.205Z,0.20
2023-04-01T17:40:24.380Z,0.30
2023-04-01T17:43:09.933Z,0.30
2023-04-01T17:46:03.151Z,0.10
2023-04-01T17:48:57.393Z,0.20
2023-04-01T17:51:33.854Z,0.60
2023-04-01T17:54:38.343Z,0.32
2023-04-01T17:57:45.002Z,0.30
2023-04-01T18:00:30.103Z,0.28
2023-04-01T18:03:38.158Z,0.30
2023-04-01T18:06:11.488Z,0.10
2023-04-01T18:09:04.676Z,0.25
2023-04-01T18:11:40.335Z,0.10
2023-04-01T18:14:23.434Z,0.22
2023-04-01T18:17:03.905Z,0.40
2023-04-01T18:19:57.488Z,0.20
2023-04-01T18:22:40.069Z,0.20
2023-04-01T18:25:22.426Z,0.20
2023-04-01T18:28:31.472Z,0.20
2023-04-01T18:31:02.928Z,0.15
2023-04-01T18:33:33.351Z,0.10
2023-04-01T18:36:36.846Z,0.17
2023-04-01T18:39:16.964Z,0.13
2023-04-01T18:41:54.604Z,0.13
2023-04-01T18:44:24.655Z,0.20
2023-04-01T18:47:01.037Z,0.13
2023-04-01T18:49:47.322Z,0.10
2023-04-01T18:52:37.394Z,0.10
2023-04-01T18:55:04.510Z,0.08
2023-04-01T18:57:59.384Z,0.10
2023-04-01T19:00:28.927Z,0.10
2023-04-01T19:02:56.294Z,0.10
2023-04-01T19:05:39.143Z,0.10
2023-04-01T19:08:16.008Z,0.08
2023-04-01T19:11:02.528Z,0.00
2023-04-01T19:13:49.936Z,0.13
2023-04-01T19:16:46.405Z,0.10
2023-04-01T19:19:32.224Z,0.10
2023-04-01T19:22:03.981Z,0.08
2023-04-01T19:24:44.932Z,0.00
2023-04-01T19:27:34.756Z,0.30
2023-04-01T19:30:44.215Z,0.10
2023-04-01T19:33:20.447Z,0.10
2023-04-01T19:36:14.801Z,0.10
2023-04-01T19:38:48.862Z,0.00
2023-04-01T19:41:40.745Z,0.10
2023-04-01T19:44:28.856Z,0.25
2023-04-01T19:47:23.135Z,0.10
2023-04-01T19:50:04.793Z,0.00
2023-04-01T19:52:37.731Z,0.00
2023-04-01T19:55:17.006Z,0.10
2023-04-01T19:58:02.011Z,0.00
2023-04-01T20:00:45.872Z,0.03
2023-04-01T20:03:34.751Z,0.10
2023-04-01T20:06:28.493Z,0.10
2023-04-01T20:09:38.341Z,0.10
2023-04-01T20:12:20.636Z,0.10
2023-04-01T20:14:58.375Z,0.15
2023-04-01T20:17:26.208Z,0.10
2023-04-01T20:20:11.618Z,0.03
2023-04-01T20:22:38.997Z,0.00
2023-04-01T20:25:20.488Z,0.00
2023-04-01T20:27:52.911Z,0.10
2023-04-01T20:30:38.055Z,0.00
2023-04-01T20:33:07.965Z,0.10
2023-04-01T20:35:43.833Z,0.10
2023-04-01T20:38:38.820Z,0.05
2023-04-01T20:41:08.758Z,0.00
2023-04-01T20:44:06.215Z,0.00
2023-04-01T20:46:52.022Z,0.10
2023-04-01T20:49:52.589Z,0.00
2023-04-01T20:52:26.542Z,0.00
2023-04-01T20:54:59.824Z,0.10
2023-04-01T20:57:33.674Z,0.10
2023-04-01T21:00:24.035Z,0.20
2023-04-01T21:03:01.375Z,0.10
2023-04-01T21:05:37.944Z,0.08
2023-04-01T21:08:31.645Z,0.10
2023-04-01T21:11:13.670Z,0.10
2023-04-01T21:14:09.986Z,0.10
2023-04-01T21:16:45.567Z,0.10
2023-04-01T21:19:32.659Z,0.00
2023-04-01T21:22:21.534Z,0.00
2023-04-01T21:24:58.016Z,0.20
2023-04-01T21:27:43.472Z,0.00
2023-04-01T21:30:35.204Z,0.00
2023-04-01T21:33:14.238Z,0.00
2023-04-01T21:36:03.246Z,0.00
2023-04-01T21:39:01.630Z,0.00
2023-04-01T21:41:36.764Z,0.00
2023-04-01T21:44:17.666Z,0.10
2023-04-01T21:47:04.953Z,0.00
2023-04-01T21:49:50.880Z,0.00
2023-04-01T21:52:40.431Z,0.00
2023-04-01T21:55:22.624Z,0.00
2023-04-01T21:58:09.964Z,0.00
2023-04-01T22:00:52.498Z,0.00
2023-04-01T22:03:57.850Z,0.00
2023-04-01T22:06:29.734Z,0.00
2023-04-01T22:08:59.317Z,0.00
2023-04-01T22:11:38.296Z,0.08
2023-04-01T22:14:32.498Z,0.00
2023-04-01T22:17:06.615Z,0.00
2023-04-01T22:19:40.444Z,0.10
2023-04-01T22:22:25.205Z,0.00
2023-04-01T22:25:15.419Z,0.00
2023-04-01T22:27:48.990Z,0.10
2023-04-01T22:30:24.843Z,0.00
2023-04-01T22:33:10.506Z,0.00
2023-04-01T22:36:13.561Z,0.00
2023-04-01T22:38:56.646Z,0.00
2023-04-01T22:41:48.001Z,0.10
2023-04-01T22:44:28.423Z,0.00
2023-04-01T22:47:16.097Z,0.00
2023-04-01T22:49:53.219Z,0.00
2023-04-01T22:53:03.012Z,0.00
2023-04-01T22:55:31.418Z,0.10
2023-04-01T22:58:01.251Z,0.00
2023-04-01T23:00:41.891Z,0.00
2023-04-01T23:03:16.489Z,0.00
2023-04-01T23:05:48.793Z,0.00
2023-04-01T23:08:50.004Z,0.00
2023-04-01T23:11:30.073Z,0.00
2023-04-01T23:14:27.648Z,0.00
2023-04-01T23:17:10.758Z,0.00
2023-04-01T23:19:44.601Z,0.00
2023-04-01T23:22:32.968Z,0.20
2023-04-01T23:25:17.690Z,0.00
2023-04-01T23:27:56.832Z,0.00
2023-04-01T23:30:39.218Z,0.00
2023-04-01T23:33:25.639Z,0.00
2023-04-01T23:36:12.730Z,0.00
2023-04-01T23:38:42.618Z,0.00
2023-04-01T23:41:17.815Z,0.00
2023-04-01T23:43:45.604Z,0.00
2023-04-01T23:46:12.545Z,0.00
2023-04-01T23:48:42.276Z,0.00
2023-04-01T23:51:28.378Z,0.00
2023-04-01T23:54:04.540Z,0.00
2023-04-01T23:56:46.739Z,0.28
2023-04-01T23:59:34.015Z,0.00
